createdAt,value
2023-01-19T00:00:32.195Z,91.141
2023-01-19T00:01:31.991Z,91.259
2023-01-19T00:02:31.681Z,91.456
2023-01-19T00:03:31.715Z,91.660
2023-01-19T00:04:31.452Z,91.810
2023-01-19T00:05:32.186Z,91.969
2023-01-19T00:07:32.211Z,92.020
2023-01-19T00:08:31.847Z,92.112
2023-01-19T00:09:31.622Z,92.333
2023-01-19T00:10:32.480Z,92.360
2023-01-19T00:12:31.927Z,92.020
2023-01-19T00:13:31.616Z,91.902
2023-01-19T00:14:32.308Z,91.755
2023-01-19T00:15:31.976Z,91.694
2023-01-19T00:16:31.687Z,91.692
2023-01-19T00:17:32.320Z,91.606
2023-01-19T00:18:31.999Z,91.509
2023-01-19T00:19:31.660Z,91.612
2023-01-19T00:20:32.323Z,91.765
2023-01-19T00:22:31.611Z,91.930
2023-01-19T00:23:32.243Z,91.429
2023-01-19T00:24:32.970Z,91.244
2023-01-19T00:25:31.715Z,91.333
2023-01-19T00:26:31.390Z,91.396
2023-01-19T00:27:32.015Z,91.093
2023-01-19T00:28:31.655Z,91.089
2023-01-19T00:29:32.722Z,91.082
2023-01-19T00:30:31.855Z,91.036
2023-01-19T00:31:31.920Z,91.208
2023-01-19T00:32:31.633Z,91.425
2023-01-19T00:33:32.314Z,91.419
2023-01-19T00:34:31.990Z,91.374
2023-01-19T00:35:32.208Z,91.618
2023-01-19T00:36:31.847Z,91.780
2023-01-19T00:37:31.507Z,91.637
2023-01-19T00:38:32.260Z,91.314
2023-01-19T00:39:31.902Z,91.726
2023-01-19T00:40:31.685Z,91.072
2023-01-19T00:41:32.420Z,91.082
2023-01-19T00:42:32.147Z,91.055
2023-01-19T00:43:31.796Z,90.880
2023-01-19T00:44:31.541Z,90.925
2023-01-19T00:45:32.473Z,91.469
2023-01-19T00:46:32.531Z,91.452
2023-01-19T00:47:32.224Z,91.538
2023-01-19T00:48:31.960Z,91.429
2023-01-19T00:49:31.527Z,91.627
2023-01-19T00:50:32.280Z,91.599
2023-01-19T00:51:32.104Z,91.795
2023-01-19T00:52:31.744Z,91.465
2023-01-19T00:53:31.455Z,91.580
2023-01-19T00:54:32.183Z,91.456
2023-01-19T00:55:32.038Z,91.696
2023-01-19T00:56:31.732Z,91.644
2023-01-19T00:57:31.406Z,91.787
2023-01-19T00:58:32.149Z,91.755
2023-01-19T00:59:31.804Z,92.136
2023-01-19T01:00:31.554Z,91.992
2023-01-19T01:01:45.686Z,92.125
2023-01-19T01:03:32.618Z,92.459
2023-01-19T01:04:33.276Z,92.280
2023-01-19T01:05:33.007Z,92.222
2023-01-19T01:06:32.827Z,92.178
2023-01-19T01:07:32.527Z,92.486
2023-01-19T01:08:33.194Z,92.501
2023-01-19T01:09:32.961Z,92.537
2023-01-19T01:10:32.636Z,92.478
2023-01-19T01:11:33.236Z,92.569
2023-01-19T01:12:33.146Z,92.541
2023-01-19T01:13:38.138Z,92.371
2023-01-19T01:14:33.005Z,92.566
2023-01-19T01:15:32.775Z,92.272
2023-01-19T01:16:32.497Z,92.463
2023-01-19T01:17:33.311Z,92.125
2023-01-19T01:18:33.023Z,92.291
2023-01-19T01:19:32.699Z,92.173
2023-01-19T01:20:33.323Z,92.093
2023-01-19T01:21:32.964Z,92.154
2023-01-19T01:22:32.702Z,91.822
2023-01-19T01:23:32.387Z,91.736
2023-01-19T01:24:33.222Z,91.604
2023-01-19T01:25:32.979Z,91.597
2023-01-19T01:26:32.616Z,91.635
2023-01-19T01:27:32.419Z,91.648
2023-01-19T01:28:33.203Z,91.555
2023-01-19T01:29:32.970Z,91.826
2023-01-19T01:30:32.583Z,91.835
2023-01-19T01:31:33.378Z,91.675
2023-01-19T01:32:33.114Z,91.612
2023-01-19T01:33:40.352Z,91.923
2023-01-19T01:34:33.322Z,91.843
2023-01-19T01:35:33.282Z,91.776
2023-01-19T01:36:32.999Z,91.860
2023-01-19T01:37:32.676Z,91.910
2023-01-19T01:38:33.338Z,91.942
2023-01-19T01:39:33.068Z,91.972
2023-01-19T01:40:32.775Z,91.852
2023-01-19T01:41:32.648Z,91.850
2023-01-19T01:42:32.588Z,91.797
2023-01-19T01:43:32.741Z,91.974
2023-01-19T01:44:32.676Z,91.974
2023-01-19T01:45:33.439Z,92.224
2023-01-19T01:46:33.179Z,92.272
2023-01-19T01:47:32.816Z,92.171
2023-01-19T01:48:32.452Z,92.333
2023-01-19T01:49:33.127Z,92.035
2023-01-19T01:50:32.843Z,91.980
2023-01-19T01:51:33.846Z,92.020
2023-01-19T01:52:32.576Z,92.018
2023-01-19T01:54:37.064Z,91.704
2023-01-19T01:55:36.757Z,91.791
2023-01-19T01:56:36.479Z,91.663
2023-01-19T01:57:37.200Z,91.675
2023-01-19T01:58:36.838Z,91.810
2023-01-19T01:59:36.562Z,91.738
2023-01-19T02:00:37.371Z,91.677
2023-01-19T02:01:36.721Z,91.732
2023-01-19T02:02:36.827Z,91.576
2023-01-19T02:03:37.044Z,91.545
2023-01-19T02:04:36.756Z,91.667
2023-01-19T02:05:37.382Z,91.694
2023-01-19T02:06:37.104Z,91.742
2023-01-19T02:07:36.803Z,91.679
2023-01-19T02:08:36.459Z,91.816
2023-01-19T02:09:37.192Z,92.138
2023-01-19T02:10:36.892Z,91.938
2023-01-19T02:11:36.592Z,91.967
2023-01-19T02:12:37.222Z,91.910
2023-01-19T02:13:36.812Z,91.915
2023-01-19T02:14:36.584Z,92.051
2023-01-19T02:15:37.260Z,92.220
2023-01-19T02:16:37.139Z,92.035
2023-01-19T02:17:36.943Z,92.133
2023-01-19T02:18:36.714Z,92.085
2023-01-19T02:19:36.412Z,92.297
2023-01-19T02:20:37.070Z,92.697
2023-01-19T02:21:36.778Z,92.680
2023-01-19T02:22:36.511Z,92.783
2023-01-19T02:23:37.190Z,92.623
2023-01-19T02:24:36.870Z,92.552
2023-01-19T02:25:36.538Z,92.672
2023-01-19T02:26:37.571Z,92.783
2023-01-19T02:27:37.246Z,92.884
2023-01-19T02:28:36.935Z,92.722
2023-01-19T02:29:36.605Z,92.949
2023-01-19T02:30:37.393Z,92.880
2023-01-19T02:31:37.231Z,92.951
2023-01-19T02:32:36.874Z,92.941
2023-01-19T02:33:36.563Z,92.804
2023-01-19T02:34:37.280Z,92.983
2023-01-19T02:35:37.028Z,92.941
2023-01-19T02:36:36.891Z,93.031
2023-01-19T02:37:36.635Z,93.025
2023-01-19T02:38:37.203Z,93.231
2023-01-19T02:39:36.924Z,93.226
2023-01-19T02:40:36.573Z,93.449
2023-01-19T02:41:36.356Z,93.336
2023-01-19T02:42:37.288Z,93.418
2023-01-19T02:43:36.993Z,93.332
2023-01-19T02:44:36.935Z,93.430
2023-01-19T02:45:36.624Z,93.247
2023-01-19T02:46:36.523Z,93.208
2023-01-19T02:47:37.307Z,93.243
2023-01-19T02:48:36.927Z,93.544
2023-01-19T02:49:36.662Z,93.445
2023-01-19T02:50:37.305Z,93.533
2023-01-19T02:51:37.242Z,93.758
2023-01-19T02:52:37.230Z,93.773
2023-01-19T02:53:36.899Z,93.790
2023-01-19T02:54:36.666Z,93.910
2023-01-19T02:55:37.291Z,93.891
2023-01-19T02:56:37.107Z,93.866
2023-01-19T02:57:37.012Z,93.912
2023-01-19T02:58:36.838Z,93.865
2023-01-19T02:59:36.524Z,93.897
2023-01-19T03:00:37.260Z,93.926
2023-01-19T03:01:37.445Z,93.832
2023-01-19T03:02:36.674Z,93.880
2023-01-19T03:03:36.572Z,93.865
2023-01-19T03:05:36.899Z,93.680
2023-01-19T03:06:36.632Z,93.704
2023-01-19T03:07:37.231Z,93.914
2023-01-19T03:08:36.900Z,93.851
2023-01-19T03:09:36.600Z,93.714
2023-01-19T03:10:37.379Z,93.729
2023-01-19T03:11:37.147Z,93.641
2023-01-19T03:12:36.917Z,93.733
2023-01-19T03:13:36.583Z,93.582
2023-01-19T03:14:37.377Z,93.643
2023-01-19T03:15:37.060Z,93.578
2023-01-19T03:16:37.059Z,93.506
2023-01-19T03:17:36.878Z,93.468
2023-01-19T03:18:36.602Z,93.460
2023-01-19T03:19:37.314Z,93.424
2023-01-19T03:20:37.003Z,93.445
2023-01-19T03:21:36.707Z,93.344
2023-01-19T03:22:36.678Z,93.355
2023-01-19T03:23:37.342Z,93.456
2023-01-19T03:24:38.758Z,93.403
2023-01-19T03:25:36.475Z,93.468
2023-01-19T03:26:37.131Z,93.397
2023-01-19T03:27:36.825Z,93.331
2023-01-19T03:28:36.498Z,93.403
2023-01-19T03:29:37.291Z,93.327
2023-01-19T03:30:36.940Z,93.266
2023-01-19T03:31:37.000Z,93.405
2023-01-19T03:32:36.847Z,93.378
2023-01-19T03:33:36.683Z,93.248
2023-01-19T03:34:36.607Z,93.166
2023-01-19T03:35:37.195Z,93.294
2023-01-19T03:36:36.880Z,93.384
2023-01-19T03:37:36.587Z,93.243
2023-01-19T03:38:37.499Z,93.508
2023-01-19T03:39:37.201Z,93.382
2023-01-19T03:40:36.911Z,93.378
2023-01-19T03:41:36.537Z,93.413
2023-01-19T03:42:37.272Z,93.311
2023-01-19T03:43:36.992Z,93.405
2023-01-19T03:44:36.684Z,93.290
2023-01-19T03:45:36.451Z,93.365
2023-01-19T03:46:37.437Z,93.256
2023-01-19T03:47:37.157Z,93.201
2023-01-19T03:48:36.836Z,93.165
2023-01-19T03:49:36.579Z,93.199
2023-01-19T03:50:37.218Z,93.245
2023-01-19T03:51:37.043Z,93.260
2023-01-19T03:52:36.653Z,93.218
2023-01-19T03:53:37.312Z,93.363
2023-01-19T03:54:36.979Z,93.275
2023-01-19T03:55:36.690Z,93.203
2023-01-19T03:56:36.743Z,93.186
2023-01-19T03:57:36.391Z,93.113
2023-01-19T03:58:37.274Z,93.046
2023-01-19T03:59:36.924Z,93.163
2023-01-19T04:00:36.580Z,93.115
2023-01-19T04:01:36.856Z,92.939
2023-01-19T04:02:36.849Z,92.934
2023-01-19T04:03:36.980Z,92.899
2023-01-19T04:04:36.839Z,93.002
2023-01-19T04:05:36.488Z,92.941
2023-01-19T04:06:37.189Z,92.890
2023-01-19T04:07:36.963Z,92.989
2023-01-19T04:08:36.875Z,93.079
2023-01-19T04:09:38.661Z,93.067
2023-01-19T04:10:37.440Z,92.941
2023-01-19T04:11:37.147Z,92.827
2023-01-19T04:12:36.823Z,92.802
2023-01-19T04:13:36.656Z,92.875
2023-01-19T04:14:37.381Z,92.829
2023-01-19T04:15:37.168Z,92.854
2023-01-19T04:17:40.969Z,92.714
2023-01-19T04:18:36.711Z,92.730
2023-01-19T04:19:36.423Z,92.882
2023-01-19T04:20:37.100Z,92.894
2023-01-19T04:21:36.945Z,92.730
2023-01-19T04:22:36.631Z,92.871
2023-01-19T04:23:37.356Z,92.598
2023-01-19T04:24:36.994Z,92.632
2023-01-19T04:25:38.830Z,92.650
2023-01-19T04:26:36.638Z,92.716
2023-01-19T04:27:37.298Z,92.646
2023-01-19T04:28:36.920Z,92.600
2023-01-19T04:29:36.572Z,92.756
2023-01-19T04:30:36.727Z,92.852
2023-01-19T04:31:36.774Z,92.655
2023-01-19T04:32:36.647Z,92.606
2023-01-19T04:33:36.479Z,92.581
2023-01-19T04:34:37.107Z,92.499
2023-01-19T04:35:36.919Z,92.554
2023-01-19T04:36:36.368Z,92.768
2023-01-19T04:37:37.235Z,92.669
2023-01-19T04:38:37.194Z,92.514
2023-01-19T04:39:36.892Z,92.623
2023-01-19T04:40:36.644Z,92.573
2023-01-19T04:41:37.342Z,92.495
2023-01-19T04:42:37.043Z,92.493
2023-01-19T04:43:36.771Z,92.386
2023-01-19T04:44:36.494Z,92.466
2023-01-19T04:45:37.203Z,92.480
2023-01-19T04:46:36.993Z,92.482
2023-01-19T04:47:36.638Z,92.674
2023-01-19T04:48:36.425Z,92.693
2023-01-19T04:49:37.119Z,92.701
2023-01-19T04:50:36.975Z,92.724
2023-01-19T04:51:37.710Z,92.810
2023-01-19T04:52:36.510Z,92.871
2023-01-19T04:54:37.022Z,92.934
2023-01-19T04:55:36.981Z,92.896
2023-01-19T04:56:36.670Z,92.911
2023-01-19T04:57:36.504Z,92.783
2023-01-19T04:58:37.403Z,92.941
2023-01-19T04:59:37.091Z,92.938
2023-01-19T05:00:36.880Z,92.947
2023-01-19T05:01:36.721Z,93.083
2023-01-19T05:02:36.794Z,92.817
2023-01-19T05:03:36.621Z,93.018
2023-01-19T05:04:37.692Z,93.161
2023-01-19T05:05:36.347Z,93.187
2023-01-19T05:06:37.242Z,93.319
2023-01-19T05:07:37.247Z,93.350
2023-01-19T05:08:36.903Z,93.226
2023-01-19T05:09:36.573Z,93.123
2023-01-19T05:10:37.207Z,92.972
2023-01-19T05:11:36.872Z,92.867
2023-01-19T05:12:36.763Z,92.789
2023-01-19T05:13:36.499Z,92.756
2023-01-19T05:14:36.835Z,92.919
2023-01-19T05:15:36.547Z,93.054
2023-01-19T05:16:37.391Z,92.877
2023-01-19T05:17:37.304Z,92.798
2023-01-19T05:18:36.923Z,92.966
2023-01-19T05:19:36.719Z,92.959
2023-01-19T05:20:36.674Z,93.035
2023-01-19T05:21:36.536Z,93.008
2023-01-19T05:22:37.319Z,92.976
2023-01-19T05:23:37.198Z,93.132
2023-01-19T05:24:36.938Z,93.107
2023-01-19T05:25:36.709Z,92.878
2023-01-19T05:26:37.360Z,92.924
2023-01-19T05:27:37.171Z,92.917
2023-01-19T05:28:36.820Z,92.943
2023-01-19T05:29:36.457Z,93.071
2023-01-19T05:30:37.189Z,93.128
2023-01-19T05:31:40.375Z,92.983
2023-01-19T05:32:36.405Z,93.014
2023-01-19T05:33:37.091Z,93.132
2023-01-19T05:34:36.781Z,93.086
2023-01-19T05:35:41.316Z,92.999
2023-01-19T05:36:37.156Z,92.894
2023-01-19T05:37:37.308Z,92.867
2023-01-19T05:38:41.928Z,92.833
2023-01-19T05:39:36.575Z,92.791
2023-01-19T05:40:37.294Z,92.739
2023-01-19T05:41:37.147Z,92.627
2023-01-19T05:42:36.912Z,92.411
2023-01-19T05:43:36.557Z,92.295
2023-01-19T05:44:37.363Z,92.346
2023-01-19T05:45:37.057Z,92.283
2023-01-19T05:46:36.913Z,92.249
2023-01-19T05:47:36.922Z,92.291
2023-01-19T05:48:36.536Z,92.293
2023-01-19T05:49:37.350Z,92.287
2023-01-19T05:50:36.959Z,92.388
2023-01-19T05:51:36.655Z,92.394
2023-01-19T05:52:37.498Z,92.501
2023-01-19T05:53:37.204Z,92.455
2023-01-19T05:54:36.916Z,92.398
2023-01-19T05:55:36.548Z,92.291
2023-01-19T05:56:37.221Z,92.293
2023-01-19T05:57:36.855Z,92.222
2023-01-19T05:58:36.791Z,92.270
2023-01-19T05:59:36.530Z,92.226
2023-01-19T06:00:37.240Z,92.348
2023-01-19T06:01:40.573Z,92.243
2023-01-19T06:02:36.632Z,92.291
2023-01-19T06:03:37.607Z,92.283
2023-01-19T06:04:36.539Z,92.217
2023-01-19T06:05:36.372Z,92.116
2023-01-19T06:06:37.092Z,92.228
2023-01-19T06:07:36.822Z,92.232
2023-01-19T06:08:36.561Z,92.114
2023-01-19T06:09:37.234Z,92.064
2023-01-19T06:10:36.895Z,92.177
2023-01-19T06:11:36.612Z,92.173
2023-01-19T06:12:37.292Z,92.323
2023-01-19T06:13:37.093Z,92.203
2023-01-19T06:14:36.915Z,92.089
2023-01-19T06:15:36.601Z,91.963
2023-01-19T06:16:37.481Z,92.045
2023-01-19T06:17:37.209Z,92.075
2023-01-19T06:18:36.850Z,92.180
2023-01-19T06:19:36.671Z,92.280
2023-01-19T06:20:37.326Z,92.209
2023-01-19T06:21:37.097Z,92.211
2023-01-19T06:22:36.745Z,92.188
2023-01-19T06:23:36.366Z,92.110
2023-01-19T06:24:37.032Z,92.045
2023-01-19T06:25:36.696Z,92.289
2023-01-19T06:26:37.379Z,92.081
2023-01-19T06:27:37.008Z,92.104
2023-01-19T06:28:36.732Z,92.146
2023-01-19T06:29:36.401Z,92.232
2023-01-19T06:30:37.151Z,92.127
2023-01-19T06:31:37.155Z,92.114
2023-01-19T06:32:36.816Z,92.270
2023-01-19T06:33:36.512Z,92.142
2023-01-19T06:34:37.130Z,92.123
2023-01-19T06:35:37.368Z,92.239
2023-01-19T06:36:36.986Z,92.140
2023-01-19T06:37:36.642Z,92.264
2023-01-19T06:38:36.535Z,92.245
2023-01-19T06:39:37.315Z,92.320
2023-01-19T06:40:37.152Z,92.329
2023-01-19T06:41:36.866Z,92.272
2023-01-19T06:42:36.568Z,92.362
2023-01-19T06:43:37.291Z,92.159
2023-01-19T06:44:36.918Z,92.447
2023-01-19T06:45:36.761Z,92.590
2023-01-19T06:46:36.604Z,92.558
2023-01-19T06:47:37.464Z,92.650
2023-01-19T06:48:37.209Z,92.663
2023-01-19T06:49:36.910Z,92.775
2023-01-19T06:50:36.504Z,92.657
2023-01-19T06:51:37.407Z,92.848
2023-01-19T06:52:37.076Z,92.709
2023-01-19T06:53:36.916Z,92.669
2023-01-19T06:54:36.587Z,92.787
2023-01-19T06:55:37.768Z,92.720
2023-01-19T06:56:37.235Z,92.537
2023-01-19T06:57:36.800Z,92.299
2023-01-19T06:58:36.535Z,92.407
2023-01-19T06:59:37.325Z,92.239
2023-01-19T07:00:37.057Z,92.083
2023-01-19T07:01:37.024Z,92.133
2023-01-19T07:02:41.935Z,92.104
2023-01-19T07:03:37.331Z,92.117
2023-01-19T07:04:37.132Z,92.222
2023-01-19T07:05:36.963Z,92.070
2023-01-19T07:06:36.803Z,91.986
2023-01-19T07:07:36.519Z,91.944
2023-01-19T07:08:37.325Z,92.180
2023-01-19T07:09:37.123Z,92.199
2023-01-19T07:11:21.853Z,92.196
2023-01-19T07:12:46.557Z,92.091
2023-01-19T07:13:46.032Z,92.102
2023-01-19T07:14:45.927Z,92.234
2023-01-19T07:15:45.810Z,92.260
2023-01-19T07:16:46.115Z,92.150
2023-01-19T07:17:45.850Z,92.161
2023-01-19T07:18:45.570Z,92.178
2023-01-19T07:19:46.406Z,92.106
2023-01-19T07:20:46.151Z,92.085
2023-01-19T07:21:48.472Z,92.163
2023-01-19T07:22:45.423Z,92.079
2023-01-19T07:23:46.172Z,91.814
2023-01-19T07:24:45.971Z,91.879
2023-01-19T07:25:45.683Z,92.009
2023-01-19T07:26:45.544Z,92.121
2023-01-19T07:27:45.403Z,92.157
2023-01-19T07:28:48.212Z,92.102
2023-01-19T07:29:45.949Z,92.299
2023-01-19T07:30:46.175Z,92.108
2023-01-19T07:31:46.598Z,92.173
2023-01-19T07:32:46.370Z,92.219
2023-01-19T07:33:45.858Z,92.281
2023-01-19T07:34:45.598Z,92.152
2023-01-19T07:35:45.435Z,92.365
2023-01-19T07:36:46.116Z,92.327
2023-01-19T07:37:45.899Z,92.577
2023-01-19T07:38:45.864Z,92.600
2023-01-19T07:39:45.614Z,92.331
2023-01-19T07:40:45.422Z,92.400
2023-01-19T07:41:46.300Z,92.444
2023-01-19T07:42:46.257Z,92.407
2023-01-19T07:43:45.906Z,92.293
2023-01-19T07:44:45.835Z,92.417
2023-01-19T07:45:47.426Z,92.262
2023-01-19T07:46:45.474Z,92.383
2023-01-19T07:47:46.306Z,92.154
2023-01-19T07:48:46.223Z,92.165
2023-01-19T07:49:46.042Z,92.079
2023-01-19T07:50:45.956Z,91.812
2023-01-19T07:51:45.772Z,91.673
2023-01-19T07:52:45.587Z,91.702
2023-01-19T07:53:46.124Z,91.683
2023-01-19T07:54:46.014Z,91.890
2023-01-19T07:55:45.712Z,91.957
2023-01-19T07:56:45.571Z,91.950
2023-01-19T07:57:46.311Z,91.723
2023-01-19T07:58:46.129Z,91.753
2023-01-19T07:59:45.840Z,91.778
2023-01-19T08:00:45.667Z,91.665
2023-01-19T08:01:46.257Z,91.633
2023-01-19T08:02:46.314Z,91.612
2023-01-19T08:03:46.439Z,91.471
2023-01-19T08:04:46.246Z,91.593
2023-01-19T08:05:46.172Z,91.543
2023-01-19T08:06:45.971Z,91.572
2023-01-19T08:07:45.803Z,91.377
2023-01-19T08:08:45.698Z,91.374
2023-01-19T08:09:45.546Z,91.402
2023-01-19T08:10:46.306Z,91.379
2023-01-19T08:11:46.158Z,91.517
2023-01-19T08:12:46.004Z,91.423
2023-01-19T08:13:45.611Z,91.393
2023-01-19T08:14:46.357Z,91.416
2023-01-19T08:15:46.278Z,91.171
2023-01-19T08:16:46.316Z,91.057
2023-01-19T08:17:46.060Z,90.929
2023-01-19T08:18:45.926Z,90.912
2023-01-19T08:19:45.720Z,90.872
2023-01-19T08:20:45.459Z,90.746
2023-01-19T08:21:46.269Z,90.895
2023-01-19T08:22:46.136Z,90.927
2023-01-19T08:23:46.679Z,91.053
2023-01-19T08:24:46.148Z,90.345
2023-01-19T08:25:46.274Z,90.227
2023-01-19T08:26:46.401Z,90.479
2023-01-19T08:27:46.304Z,90.517
2023-01-19T08:28:46.186Z,90.048
2023-01-19T08:29:45.964Z,89.583
2023-01-19T08:30:46.029Z,89.403
2023-01-19T08:32:50.762Z,89.203
2023-01-19T08:33:50.646Z,89.033
2023-01-19T08:34:50.590Z,89.352
2023-01-19T08:35:51.409Z,89.319
2023-01-19T08:36:51.195Z,89.033
2023-01-19T08:37:53.604Z,89.321
2023-01-19T08:38:51.403Z,89.527
2023-01-19T08:39:51.135Z,89.321
2023-01-19T08:40:50.845Z,89.197
2023-01-19T08:41:50.642Z,88.862
2023-01-19T08:42:51.507Z,89.064
2023-01-19T08:43:50.494Z,89.321
2023-01-19T08:44:58.249Z,88.936
2023-01-19T08:45:50.430Z,89.010
2023-01-19T08:46:51.445Z,88.785
2023-01-19T08:47:51.444Z,88.690
2023-01-19T08:48:51.259Z,88.957
2023-01-19T08:49:51.079Z,89.497
2023-01-19T08:50:50.863Z,89.417
2023-01-19T08:51:50.675Z,89.029
2023-01-19T08:52:50.516Z,88.806
2023-01-19T08:53:51.320Z,89.264
2023-01-19T08:54:51.108Z,88.448
2023-01-19T08:55:50.892Z,88.476
2023-01-19T08:56:50.723Z,87.950
2023-01-19T08:57:50.363Z,88.438
2023-01-19T08:59:07.966Z,88.285
2023-01-19T09:00:50.923Z,88.375
2023-01-19T09:01:51.372Z,87.818
2023-01-19T09:02:51.198Z,87.339
2023-01-19T09:03:50.901Z,87.061
2023-01-19T09:04:50.739Z,87.879
2023-01-19T09:05:50.594Z,87.124
2023-01-19T09:06:51.373Z,86.689
2023-01-19T09:07:54.715Z,87.038
2023-01-19T09:08:50.763Z,86.777
2023-01-19T09:09:50.495Z,86.906
2023-01-19T09:10:50.480Z,87.408
2023-01-19T09:11:51.369Z,87.322
2023-01-19T09:12:51.127Z,87.935
2023-01-19T09:13:51.043Z,87.154
2023-01-19T09:14:50.866Z,87.206
2023-01-19T09:15:50.785Z,87.368
2023-01-19T09:16:50.780Z,87.187
2023-01-19T09:17:50.455Z,86.571
2023-01-19T09:18:51.347Z,86.941
2023-01-19T09:19:52.719Z,86.395
2023-01-19T09:20:50.580Z,86.239
2023-01-19T09:21:51.374Z,86.573
2023-01-19T09:22:51.206Z,86.584
2023-01-19T09:24:50.708Z,87.170
2023-01-19T09:25:50.601Z,86.794
2023-01-19T09:26:52.703Z,86.294
2023-01-19T09:27:50.528Z,86.929
2023-01-19T09:28:51.347Z,86.802
2023-01-19T09:29:51.058Z,86.769
2023-01-19T09:30:50.856Z,86.170
2023-01-19T09:31:51.193Z,85.602
2023-01-19T09:32:50.966Z,85.827
2023-01-19T09:33:50.794Z,85.861
2023-01-19T09:34:50.587Z,85.814
2023-01-19T09:35:51.303Z,86.361
2023-01-19T09:36:51.098Z,85.634
2023-01-19T09:37:51.350Z,85.468
2023-01-19T09:39:50.985Z,85.129
2023-01-19T09:40:51.228Z,85.138
2023-01-19T09:41:51.027Z,84.484
2023-01-19T09:42:50.887Z,84.248
2023-01-19T09:43:50.786Z,84.549
2023-01-19T09:44:50.523Z,84.885
2023-01-19T09:45:51.316Z,85.274
2023-01-19T09:46:51.338Z,84.610
2023-01-19T09:47:51.046Z,85.079
2023-01-19T09:48:50.774Z,84.255
2023-01-19T09:49:50.703Z,84.921
2023-01-19T09:50:51.591Z,85.636
2023-01-19T09:51:51.375Z,85.255
2023-01-19T09:52:51.212Z,85.539
2023-01-19T09:53:51.061Z,85.247
2023-01-19T09:54:50.963Z,85.556
2023-01-19T09:55:50.732Z,85.432
2023-01-19T09:56:53.887Z,85.096
2023-01-19T09:57:51.014Z,85.543
2023-01-19T09:58:50.751Z,85.892
2023-01-19T09:59:50.507Z,85.270
2023-01-19T10:00:51.454Z,85.447
2023-01-19T10:01:53.524Z,85.005
2023-01-19T10:02:51.524Z,85.241
2023-01-19T10:03:51.406Z,84.888
2023-01-19T10:04:51.225Z,85.258
2023-01-19T10:05:50.946Z,84.131
2023-01-19T10:06:50.763Z,84.747
2023-01-19T10:07:50.579Z,85.009
2023-01-19T10:08:51.358Z,83.918
2023-01-19T10:09:51.132Z,84.166
2023-01-19T10:10:50.965Z,83.616
2023-01-19T10:11:55.690Z,83.961
2023-01-19T10:12:50.524Z,83.832
2023-01-19T10:13:51.296Z,83.109
2023-01-19T10:14:51.177Z,83.776
2023-01-19T10:16:50.768Z,83.979
2023-01-19T10:17:50.575Z,83.147
2023-01-19T10:18:51.300Z,83.836
2023-01-19T10:19:51.144Z,83.773
2023-01-19T10:20:51.118Z,83.567
2023-01-19T10:21:51.539Z,83.809
2023-01-19T10:22:51.465Z,83.460
2023-01-19T10:23:51.282Z,83.832
2023-01-19T10:24:51.253Z,84.103
2023-01-19T10:25:51.233Z,83.744
2023-01-19T10:26:51.042Z,84.379
2023-01-19T10:27:50.959Z,84.013
2023-01-19T10:28:50.776Z,84.284
2023-01-19T10:29:50.717Z,84.488
2023-01-19T10:30:50.586Z,84.444
2023-01-19T10:31:50.961Z,84.145
2023-01-19T10:32:51.243Z,84.587
2023-01-19T10:33:51.456Z,84.057
2023-01-19T10:35:51.401Z,84.291
2023-01-19T10:36:51.274Z,83.954
2023-01-19T10:37:51.230Z,84.242
2023-01-19T10:38:51.350Z,84.364
2023-01-19T10:39:55.905Z,84.694
2023-01-19T10:40:50.978Z,84.593
2023-01-19T10:41:51.058Z,84.644
2023-01-19T10:42:50.958Z,84.707
2023-01-19T10:43:50.789Z,84.148
2023-01-19T10:44:50.808Z,84.341
2023-01-19T10:45:50.936Z,83.349
2023-01-19T10:46:50.917Z,83.729
2023-01-19T10:47:50.789Z,83.721
2023-01-19T10:48:50.658Z,82.720
2023-01-19T10:49:50.817Z,83.147
2023-01-19T10:50:50.624Z,83.336
2023-01-19T10:51:50.544Z,83.090
2023-01-19T10:52:51.384Z,84.146
2023-01-19T10:53:50.587Z,83.368
2023-01-19T10:54:50.530Z,83.401
2023-01-19T10:55:51.453Z,83.540
2023-01-19T10:56:51.401Z,82.809
2023-01-19T10:57:51.411Z,83.021
2023-01-19T10:58:51.428Z,82.939
2023-01-19T10:59:51.377Z,83.229
2023-01-19T11:01:51.892Z,83.593
2023-01-19T11:02:51.336Z,83.191
2023-01-19T11:03:50.876Z,82.584
2023-01-19T11:04:51.797Z,82.159
2023-01-19T11:05:50.685Z,82.214
2023-01-19T11:06:50.510Z,82.781
2023-01-19T11:07:51.347Z,82.472
2023-01-19T11:08:51.171Z,81.829
2023-01-19T11:09:50.969Z,82.478
2023-01-19T11:10:51.060Z,82.373
2023-01-19T11:11:50.785Z,81.932
2023-01-19T11:12:50.523Z,81.909
2023-01-19T11:13:50.487Z,81.631
2023-01-19T11:14:51.284Z,81.240
2023-01-19T11:15:51.291Z,81.364
2023-01-19T11:16:51.284Z,81.476
2023-01-19T11:17:51.283Z,81.451
2023-01-19T11:18:51.000Z,81.049
2023-01-19T11:19:50.981Z,81.581
2023-01-19T11:20:50.633Z,80.931
2023-01-19T11:21:50.573Z,81.470
2023-01-19T11:22:51.420Z,81.154
2023-01-19T11:23:51.278Z,81.158
2023-01-19T11:24:51.206Z,81.570
2023-01-19T11:25:51.031Z,81.636
2023-01-19T11:26:50.963Z,81.980
2023-01-19T11:27:50.711Z,81.060
2023-01-19T11:28:50.478Z,81.818
2023-01-19T11:29:51.353Z,80.786
2023-01-19T11:30:51.130Z,80.748
2023-01-19T11:31:51.248Z,80.662
2023-01-19T11:32:51.085Z,80.446
2023-01-19T11:33:52.549Z,81.182
2023-01-19T11:34:51.334Z,80.748
2023-01-19T11:35:50.506Z,80.376
2023-01-19T11:36:51.255Z,80.685
2023-01-19T11:37:51.111Z,80.641
2023-01-19T11:38:50.843Z,80.231
2023-01-19T11:39:50.591Z,80.120
2023-01-19T11:40:51.332Z,80.748
2023-01-19T11:41:51.308Z,80.540
2023-01-19T11:42:51.044Z,80.227
2023-01-19T11:43:55.770Z,79.624
2023-01-19T11:44:50.568Z,81.240
2023-01-19T11:45:51.425Z,80.616
2023-01-19T11:46:51.851Z,80.788
2023-01-19T11:47:50.643Z,79.769
2023-01-19T11:48:51.389Z,79.817
2023-01-19T11:49:51.253Z,80.013
2023-01-19T11:50:51.035Z,79.967
2023-01-19T11:51:51.003Z,80.065
2023-01-19T11:52:51.034Z,79.616
2023-01-19T11:53:50.831Z,79.941
2023-01-19T11:54:51.063Z,79.985
2023-01-19T11:55:50.806Z,79.449
2023-01-19T11:56:50.467Z,80.400
2023-01-19T11:57:50.727Z,79.550
2023-01-19T11:58:50.959Z,79.668
2023-01-19T11:59:52.035Z,79.832
2023-01-19T12:00:50.853Z,79.922
2023-01-19T12:01:50.780Z,80.276
2023-01-19T12:02:50.640Z,79.422
2023-01-19T12:03:51.207Z,79.918
2023-01-19T12:04:50.615Z,80.326
2023-01-19T12:05:51.353Z,80.328
2023-01-19T12:06:51.077Z,80.271
2023-01-19T12:07:51.019Z,80.387
2023-01-19T12:08:50.484Z,80.082
2023-01-19T12:09:51.493Z,80.000
2023-01-19T12:10:51.287Z,80.118
2023-01-19T12:11:51.023Z,80.322
2023-01-19T12:12:50.767Z,80.059
2023-01-19T12:13:51.331Z,80.893
2023-01-19T12:14:50.848Z,80.770
2023-01-19T12:15:52.032Z,80.271
2023-01-19T12:16:50.865Z,80.295
2023-01-19T12:17:50.657Z,80.959
2023-01-19T12:18:50.946Z,80.677
2023-01-19T12:19:50.970Z,79.737
2023-01-19T12:20:51.361Z,79.931
2023-01-19T12:21:51.259Z,80.002
2023-01-19T12:22:51.049Z,79.739
2023-01-19T12:23:50.871Z,80.818
2023-01-19T12:24:50.864Z,79.637
2023-01-19T12:25:50.719Z,79.599
2023-01-19T12:26:50.471Z,80.254
2023-01-19T12:27:51.075Z,79.594
2023-01-19T12:28:50.934Z,80.622
2023-01-19T12:29:50.785Z,80.410
2023-01-19T12:30:50.756Z,79.927
2023-01-19T12:31:53.593Z,80.389
2023-01-19T12:32:51.423Z,80.612
2023-01-19T12:34:51.167Z,80.685
2023-01-19T12:35:51.216Z,80.101
2023-01-19T12:36:50.936Z,80.769
2023-01-19T12:37:50.784Z,80.749
2023-01-19T12:38:50.689Z,80.353
2023-01-19T12:39:50.623Z,80.496
2023-01-19T12:40:50.664Z,80.664
2023-01-19T12:41:50.813Z,80.868
2023-01-19T12:42:50.718Z,81.060
2023-01-19T12:43:50.475Z,80.753
2023-01-19T12:44:50.656Z,81.093
2023-01-19T12:45:51.707Z,80.221